Time;durP1;ratioP1;P1;durP2;ratioP2;P2;SDS_P1;SDS_P2;PMS_P1;PMS_P2;Temp;Humidity;BMP_temperature;BMP_pressure;BME280_temperature;BME280_humidity;BME280_pressure;Samples;Min_cycle;Max_cycle;Signal;HPM_P1;HPM_P2
2020/12/25 00:00:59;;;;;;;1.27;0.80;;;;;;;;;;10452777;28;20247;-72
2020/12/25 00:06:11;;;;;;;0.70;0.50;;;;;;;;;;10462851;28;20288;-71
2020/12/25 00:11:13;;;;;;;0.87;0.50;;;;;;;;;;10437845;28;20212;-70
2020/12/25 00:16:16;;;;;;;0.23;0.23;;;;;;;;;;10448042;28;20209;-71
2020/12/25 00:21:18;;;;;;;0.20;0.20;;;;;;;;;;10430580;28;20298;-72
2020/12/25 00:26:24;;;;;;;2.97;1.43;;;;;;;;;;10425609;28;20212;-72
2020/12/25 00:31:26;;;;;;;0.87;0.30;;;;;;;;;;10436070;28;20235;-71
2020/12/25 00:36:30;;;;;;;0.57;0.30;;;;;;;;;;10437816;28;20229;-71
2020/12/25 00:41:32;;;;;;;1.03;0.77;;;;;;;;;;10437838;28;20217;-69
2020/12/25 00:46:33;;;;;;;0.80;0.60;;;;;;;;;;10418990;28;20239;-72
2020/12/25 00:51:36;;;;;;;0.60;0.50;;;;;;;;;;10441904;28;20235;-71
2020/12/25 00:56:37;;;;;;;0.50;0.50;;;;;;;;;;10426368;28;20692;-70
2020/12/25 01:01:39;;;;;;;0.90;0.60;;;;;;;;;;10412900;28;20221;-72
2020/12/25 01:06:49;;;;;;;0.50;0.50;;;;;;;;;;10436867;28;20193;-70
2020/12/25 01:11:51;;;;;;;0.50;0.37;;;;;;;;;;10410793;28;20506;-71
2020/12/25 01:16:54;;;;;;;0.67;0.43;;;;;;;;;;10451923;28;20198;-71
2020/12/25 01:21:56;;;;;;;1.10;0.77;;;;;;;;;;10424783;28;20220;-71
2020/12/25 01:26:57;;;;;;;0.73;0.70;;;;;;;;;;10444216;28;20239;-71
2020/12/25 01:31:59;;;;;;;0.87;0.63;;;;;;;;;;10457711;28;20209;-71
2020/12/25 01:37:08;;;;;;;0.50;0.50;;;;;;;;;;10416276;28;20193;-71
2020/12/25 01:42:10;;;;;;;1.53;0.90;;;;;;;;;;10426376;28;20239;-71
2020/12/25 01:47:12;;;;;;;2.47;1.23;;;;;;;;;;10424685;28;20251;-73
2020/12/25 01:52:15;;;;;;;1.50;1.10;;;;;;;;;;10442805;28;20263;-72
2020/12/25 01:57:16;;;;;;;1.83;1.20;;;;;;;;;;10416226;28;20206;-70
2020/12/25 02:02:18;;;;;;;1.57;1.20;;;;;;;;;;10414846;28;20647;-71
2020/12/25 02:07:26;;;;;;;1.80;1.30;;;;;;;;;;10403440;28;20267;-70
2020/12/25 02:12:28;;;;;;;2.30;1.30;;;;;;;;;;10459028;28;20277;-71
2020/12/25 02:17:29;;;;;;;1.50;1.00;;;;;;;;;;10444407;28;20701;-72
2020/12/25 02:22:32;;;;;;;2.87;1.60;;;;;;;;;;10448805;28;20212;-69
2020/12/25 02:27:33;;;;;;;2.50;1.50;;;;;;;;;;10451856;28;20331;-71
2020/12/25 02:32:36;;;;;;;2.03;1.40;;;;;;;;;;10443998;28;20219;-71
2020/12/25 02:37:48;;;;;;;2.13;1.60;;;;;;;;;;10441052;28;20189;-72
2020/12/25 02:42:50;;;;;;;2.57;1.60;;;;;;;;;;10482023;28;20300;-71
2020/12/25 02:47:52;;;;;;;0.93;0.70;;;;;;;;;;10436707;28;20316;-71
2020/12/25 02:52:54;;;;;;;3.47;1.90;;;;;;;;;;10463333;28;20277;-71
2020/12/25 02:57:56;;;;;;;2.33;1.40;;;;;;;;;;10433720;28;20196;-73
2020/12/25 03:02:57;;;;;;;1.57;1.03;;;;;;;;;;10452242;28;20325;-70
2020/12/25 03:08:08;;;;;;;1.00;0.67;;;;;;;;;;10411002;28;20260;-72
2020/12/25 03:13:09;;;;;;;2.03;1.30;;;;;;;;;;10447294;28;20237;-72
2020/12/25 03:18:11;;;;;;;1.10;1.00;;;;;;;;;;10396833;28;20289;-71
2020/12/25 03:23:13;;;;;;;1.27;0.90;;;;;;;;;;10446395;28;20213;-70
2020/12/25 03:28:15;;;;;;;1.60;1.03;;;;;;;;;;10438838;28;20185;-71
2020/12/25 03:33:17;;;;;;;0.80;0.50;;;;;;;;;;10441122;28;20255;-71
2020/12/25 03:38:25;;;;;;;0.97;0.70;;;;;;;;;;10417341;28;20192;-70
2020/12/25 03:43:27;;;;;;;0.77;0.50;;;;;;;;;;10426135;28;20246;-71
2020/12/25 03:48:29;;;;;;;0.50;0.40;;;;;;;;;;10434848;28;20253;-71
2020/12/25 03:53:31;;;;;;;0.20;0.20;;;;;;;;;;10451910;28;20216;-70
2020/12/25 03:58:33;;;;;;;0.83;0.50;;;;;;;;;;10441500;28;20202;-71
2020/12/25 04:03:34;;;;;;;0.57;0.47;;;;;;;;;;10435744;28;20261;-71
2020/12/25 04:08:45;;;;;;;0.30;0.30;;;;;;;;;;10431458;28;20279;-71
2020/12/25 04:13:47;;;;;;;0.30;0.30;;;;;;;;;;10419490;28;20210;-72
2020/12/25 04:18:49;;;;;;;0.27;0.27;;;;;;;;;;10437744;28;20197;-72
2020/12/25 04:23:51;;;;;;;0.80;0.37;;;;;;;;;;10431459;28;20243;-71
2020/12/25 04:28:53;;;;;;;0.30;0.30;;;;;;;;;;10446961;28;20671;-70
2020/12/25 04:33:55;;;;;;;0.50;0.50;;;;;;;;;;10453002;28;20224;-70
2020/12/25 04:39:06;;;;;;;0.40;0.40;;;;;;;;;;10448621;28;20192;-72
2020/12/25 04:44:07;;;;;;;0.40;0.30;;;;;;;;;;10439662;28;20216;-72
2020/12/25 04:49:09;;;;;;;0.60;0.60;;;;;;;;;;10441183;28;20268;-72
2020/12/25 04:54:11;;;;;;;0.40;0.40;;;;;;;;;;10417525;28;20316;-72
2020/12/25 04:59:13;;;;;;;0.70;0.70;;;;;;;;;;10431274;28;20198;-72
2020/12/25 05:04:18;;;;;;;0.67;0.60;;;;;;;;;;10433986;28;20563;-72
2020/12/25 05:09:22;;;;;;;0.60;0.50;;;;;;;;;;10431472;28;20205;-72
2020/12/25 05:14:25;;;;;;;0.20;0.20;;;;;;;;;;10433523;28;20241;-72
2020/12/25 05:19:27;;;;;;;0.40;0.40;;;;;;;;;;10430923;28;20215;-72
2020/12/25 05:24:35;;;;;;;0.77;0.70;;;;;;;;;;10438228;28;20279;-71
2020/12/25 05:29:37;;;;;;;2.27;1.00;;;;;;;;;;10464844;28;20644;-71
2020/12/25 05:34:42;;;;;;;1.00;0.77;;;;;;;;;;10444816;28;20703;-70
2020/12/25 05:39:47;;;;;;;0.40;0.40;;;;;;;;;;10467873;28;20221;-70
2020/12/25 05:44:49;;;;;;;1.30;0.77;;;;;;;;;;10426632;28;20696;-71
2020/12/25 05:49:51;;;;;;;1.37;1.00;;;;;;;;;;10459456;28;20370;-70
2020/12/25 05:54:54;;;;;;;1.50;1.00;;;;;;;;;;10457827;28;20575;-70
2020/12/25 05:59:56;;;;;;;1.37;1.00;;;;;;;;;;10427007;28;20284;-71
2020/12/25 06:04:58;;;;;;;1.90;1.13;;;;;;;;;;10443748;28;20643;-71
2020/12/25 06:10:04;;;;;;;0.67;0.60;;;;;;;;;;10457513;28;20229;-71
2020/12/25 06:15:08;;;;;;;2.43;1.30;;;;;;;;;;10435439;28;20298;-71
2020/12/25 06:20:13;;;;;;;2.47;1.37;;;;;;;;;;10447122;28;20239;-72
2020/12/25 06:25:16;;;;;;;2.40;1.37;;;;;;;;;;10440993;28;20727;-72
2020/12/25 06:30:24;;;;;;;2.43;1.30;;;;;;;;;;10424328;28;20189;-71
2020/12/25 06:35:29;;;;;;;1.70;1.00;;;;;;;;;;10457220;28;20281;-72
2020/12/25 06:40:32;;;;;;;3.90;1.13;;;;;;;;;;10423155;28;20652;-71
2020/12/25 06:45:33;;;;;;;2.47;1.03;;;;;;;;;;10450286;28;20215;-71
2020/12/25 06:50:39;;;;;;;2.53;1.50;;;;;;;;;;10450807;28;20194;-70
2020/12/25 06:55:43;;;;;;;2.07;1.10;;;;;;;;;;10422128;28;20213;-71
2020/12/25 07:00:55;;;;;;;3.17;1.40;;;;;;;;;;10442810;28;20660;-72
2020/12/25 07:06:00;;;;;;;3.20;1.60;;;;;;;;;;10434860;28;20209;-72
2020/12/25 07:11:03;;;;;;;1.63;0.90;;;;;;;;;;10448831;28;20192;-71
2020/12/25 07:16:05;;;;;;;1.53;0.70;;;;;;;;;;10434196;28;20278;-70
2020/12/25 07:21:08;;;;;;;2.10;1.30;;;;;;;;;;10417388;28;20196;-70
2020/12/25 07:26:11;;;;;;;2.80;1.70;;;;;;;;;;10463543;28;20700;-71
2020/12/25 07:31:13;;;;;;;2.00;1.37;;;;;;;;;;10433286;28;20189;-70
2020/12/25 07:36:15;;;;;;;3.00;1.60;;;;;;;;;;10436929;28;20236;-71
2020/12/25 07:41:17;;;;;;;3.73;1.97;;;;;;;;;;10443411;28;20299;-71
2020/12/25 07:46:19;;;;;;;3.27;1.70;;;;;;;;;;10439774;28;20225;-71
2020/12/25 07:51:21;;;;;;;2.90;1.70;;;;;;;;;;10441579;28;20204;-71
2020/12/25 07:56:26;;;;;;;3.30;1.67;;;;;;;;;;10434052;28;20716;-71
2020/12/25 08:01:28;;;;;;;3.30;1.63;;;;;;;;;;10449657;28;20196;-71
2020/12/25 08:06:31;;;;;;;4.70;2.07;;;;;;;;;;10447036;28;20573;-71
2020/12/25 08:11:33;;;;;;;3.97;1.90;;;;;;;;;;10406912;28;20196;-71
2020/12/25 08:16:36;;;;;;;6.20;2.37;;;;;;;;;;10443361;28;20562;-72
2020/12/25 08:21:38;;;;;;;4.10;1.90;;;;;;;;;;10448421;28;20275;-70
2020/12/25 08:26:41;;;;;;;5.10;2.20;;;;;;;;;;10431339;28;20193;-71
2020/12/25 08:31:43;;;;;;;3.20;1.93;;;;;;;;;;10433601;28;20203;-71
2020/12/25 08:36:55;;;;;;;4.17;1.80;;;;;;;;;;10439240;28;20387;-71
2020/12/25 08:41:58;;;;;;;4.30;2.00;;;;;;;;;;10460565;28;20247;-72
2020/12/25 08:47:06;;;;;;;4.47;2.30;;;;;;;;;;10439179;28;20317;-72
2020/12/25 08:52:20;;;;;;;4.57;2.07;;;;;;;;;;10448327;28;20240;-71
2020/12/25 08:57:22;;;;;;;5.03;2.30;;;;;;;;;;10436466;28;20665;-71
2020/12/25 09:02:24;;;;;;;4.63;2.07;;;;;;;;;;10449020;28;20304;-71
2020/12/25 09:07:25;;;;;;;3.20;1.70;;;;;;;;;;10424202;28;20274;-71
2020/12/25 09:12:28;;;;;;;2.70;1.40;;;;;;;;;;10421325;28;20271;-69
2020/12/25 09:17:33;;;;;;;3.50;1.80;;;;;;;;;;10446490;28;20180;-68
2020/12/25 09:22:34;;;;;;;4.20;2.17;;;;;;;;;;10445840;28;20800;-72
2020/12/25 09:27:38;;;;;;;4.33;1.90;;;;;;;;;;10444527;28;20253;-71
2020/12/25 09:32:39;;;;;;;4.13;1.83;;;;;;;;;;10452152;28;20275;-72
2020/12/25 09:37:41;;;;;;;3.90;2.03;;;;;;;;;;10459836;28;20201;-71
2020/12/25 09:42:44;;;;;;;3.70;1.90;;;;;;;;;;10459389;28;20208;-72
2020/12/25 09:47:46;;;;;;;3.60;1.80;;;;;;;;;;10460215;28;20208;-71
2020/12/25 09:52:47;;;;;;;3.70;1.80;;;;;;;;;;10467292;28;20204;-72
2020/12/25 09:57:50;;;;;;;3.57;1.80;;;;;;;;;;10430734;28;20234;-70
2020/12/25 10:02:51;;;;;;;3.10;1.80;;;;;;;;;;10442966;28;20213;-71
2020/12/25 10:07:53;;;;;;;3.37;1.80;;;;;;;;;;10431467;28;20557;-69
2020/12/25 10:12:55;;;;;;;4.10;1.90;;;;;;;;;;10461723;28;20213;-71
2020/12/25 10:17:57;;;;;;;3.07;1.70;;;;;;;;;;10453929;28;20280;-69
2020/12/25 10:22:58;;;;;;;3.73;1.80;;;;;;;;;;10415695;28;20700;-71
2020/12/25 10:28:01;;;;;;;4.43;1.83;;;;;;;;;;10434678;28;20248;-71
2020/12/25 10:33:02;;;;;;;2.40;1.50;;;;;;;;;;10425454;28;20201;-69
2020/12/25 10:38:04;;;;;;;4.97;1.73;;;;;;;;;;10452030;28;20620;-71
2020/12/25 10:43:06;;;;;;;4.07;1.93;;;;;;;;;;10429878;28;20577;-71
2020/12/25 10:48:08;;;;;;;3.23;1.57;;;;;;;;;;10441765;28;20186;-71
2020/12/25 10:53:10;;;;;;;2.27;1.50;;;;;;;;;;10443208;28;20229;-71
2020/12/25 10:58:12;;;;;;;2.93;1.40;;;;;;;;;;10443039;28;20193;-70
2020/12/25 11:03:14;;;;;;;3.40;1.70;;;;;;;;;;10445129;28;20322;-70
2020/12/25 11:08:15;;;;;;;3.47;1.77;;;;;;;;;;10443361;28;21080;-71
2020/12/25 11:13:25;;;;;;;3.10;1.60;;;;;;;;;;10429192;28;20212;-68
2020/12/25 11:18:26;;;;;;;3.60;1.80;;;;;;;;;;10441542;28;20194;-70
2020/12/25 11:23:28;;;;;;;3.33;1.60;;;;;;;;;;10435716;28;20659;-72
2020/12/25 11:28:30;;;;;;;3.97;1.83;;;;;;;;;;10442455;28;20190;-68
2020/12/25 11:33:32;;;;;;;2.73;1.60;;;;;;;;;;10439515;28;20209;-71
2020/12/25 11:38:34;;;;;;;3.90;2.10;;;;;;;;;;10422769;28;20189;-71
2020/12/25 11:43:43;;;;;;;3.47;1.97;;;;;;;;;;10465312;28;20216;-69
2020/12/25 11:48:46;;;;;;;4.93;2.10;;;;;;;;;;10447118;28;20193;-71
2020/12/25 11:53:49;;;;;;;3.03;1.73;;;;;;;;;;10446565;28;20202;-71
2020/12/25 11:58:52;;;;;;;3.97;2.00;;;;;;;;;;10451088;28;20251;-71
2020/12/25 12:03:54;;;;;;;5.20;2.60;;;;;;;;;;10424116;28;20291;-70
2020/12/25 12:08:55;;;;;;;6.43;3.30;;;;;;;;;;10430032;28;20583;-70
2020/12/25 12:14:03;;;;;;;6.20;2.80;;;;;;;;;;10435952;28;20210;-69
2020/12/25 12:19:04;;;;;;;9.43;4.30;;;;;;;;;;10447667;28;20219;-71
2020/12/25 12:24:06;;;;;;;7.83;3.17;;;;;;;;;;10430589;28;20304;-71
2020/12/25 12:29:08;;;;;;;5.63;2.70;;;;;;;;;;10446832;28;20280;-71
2020/12/25 12:34:10;;;;;;;6.53;3.07;;;;;;;;;;10465714;28;20235;-72
2020/12/25 12:39:12;;;;;;;6.07;2.80;;;;;;;;;;10452230;28;20565;-71
2020/12/25 12:44:21;;;;;;;6.77;3.47;;;;;;;;;;10452729;28;20228;-69
2020/12/25 12:49:23;;;;;;;7.33;3.30;;;;;;;;;;10458019;28;20616;-72
2020/12/25 12:54:25;;;;;;;6.83;3.30;;;;;;;;;;10455204;28;20259;-71
2020/12/25 12:59:27;;;;;;;6.27;3.17;;;;;;;;;;10449429;28;20225;-69
2020/12/25 13:04:29;;;;;;;7.60;3.50;;;;;;;;;;10441370;28;20549;-69
2020/12/25 13:09:31;;;;;;;6.80;3.33;;;;;;;;;;10436920;28;20189;-70
2020/12/25 13:14:40;;;;;;;8.47;3.70;;;;;;;;;;10447440;28;20242;-71
2020/12/25 13:19:42;;;;;;;7.00;3.50;;;;;;;;;;10437554;28;20266;-71
2020/12/25 13:24:43;;;;;;;6.27;3.23;;;;;;;;;;10433422;28;20205;-72
2020/12/25 13:29:46;;;;;;;6.63;3.47;;;;;;;;;;10437631;28;20189;-72
2020/12/25 13:34:48;;;;;;;8.10;3.80;;;;;;;;;;10435329;28;20220;-68
2020/12/25 13:39:49;;;;;;;7.80;3.43;;;;;;;;;;10440895;28;20185;-71
2020/12/25 13:45:02;;;;;;;7.43;3.53;;;;;;;;;;10434099;28;20210;-70
2020/12/25 13:50:03;;;;;;;7.03;3.60;;;;;;;;;;10434940;28;20331;-71
2020/12/25 13:55:05;;;;;;;7.40;3.60;;;;;;;;;;10451923;28;20275;-71
2020/12/25 14:00:07;;;;;;;7.00;3.57;;;;;;;;;;10438584;28;20200;-71
2020/12/25 14:05:09;;;;;;;7.10;3.37;;;;;;;;;;10442022;28;20216;-72
2020/12/25 14:10:11;;;;;;;7.23;3.53;;;;;;;;;;10457941;28;20271;-73
2020/12/25 14:15:21;;;;;;;7.97;3.60;;;;;;;;;;10441902;28;20221;-73
2020/12/25 14:20:24;;;;;;;6.37;3.00;;;;;;;;;;10428580;28;20220;-71
2020/12/25 14:25:25;;;;;;;6.80;3.10;;;;;;;;;;10440695;28;20240;-71
2020/12/25 14:30:28;;;;;;;6.93;3.40;;;;;;;;;;10457218;28;20188;-71
2020/12/25 14:35:30;;;;;;;7.13;3.53;;;;;;;;;;10443483;28;20197;-71
2020/12/25 14:40:34;;;;;;;5.07;2.43;;;;;;;;;;10440429;28;20509;-70
2020/12/25 14:45:43;;;;;;;6.23;3.13;;;;;;;;;;10433228;28;20221;-70
2020/12/25 14:50:45;;;;;;;5.57;2.93;;;;;;;;;;10428300;28;20284;-70
2020/12/25 14:55:47;;;;;;;6.00;2.90;;;;;;;;;;10457783;28;20213;-69
2020/12/25 15:00:49;;;;;;;7.50;3.27;;;;;;;;;;10459942;28;20188;-71
2020/12/25 15:05:51;;;;;;;7.07;3.47;;;;;;;;;;10461825;28;20209;-70
2020/12/25 15:10:52;;;;;;;6.40;3.20;;;;;;;;;;10436518;28;20227;-70
2020/12/25 15:16:00;;;;;;;7.80;3.73;;;;;;;;;;10441756;28;20205;-69
2020/12/25 15:21:02;;;;;;;7.80;3.90;;;;;;;;;;10430880;28;20197;-70
2020/12/25 15:26:03;;;;;;;7.77;3.67;;;;;;;;;;10458489;28;20213;-71
2020/12/25 15:31:07;;;;;;;9.43;5.03;;;;;;;;;;10464636;28;20544;-71
2020/12/25 15:36:09;;;;;;;7.80;3.60;;;;;;;;;;10448531;28;20732;-69
2020/12/25 15:41:11;;;;;;;7.60;3.87;;;;;;;;;;10445703;28;20739;-70
2020/12/25 15:46:20;;;;;;;7.83;3.93;;;;;;;;;;10434645;28;20213;-70
2020/12/25 15:51:21;;;;;;;7.20;3.47;;;;;;;;;;10451563;28;20251;-71
2020/12/25 15:56:23;;;;;;;7.23;3.53;;;;;;;;;;10430207;28;20220;-70
2020/12/25 16:01:30;;;;;;;7.80;3.90;;;;;;;;;;10428278;28;20197;-71
2020/12/25 16:06:32;;;;;;;6.37;2.97;;;;;;;;;;10452699;28;20212;-70
2020/12/25 16:11:33;;;;;;;7.13;3.83;;;;;;;;;;10444297;28;20637;-73
2020/12/25 16:16:40;;;;;;;8.27;3.90;;;;;;;;;;10455778;28;20192;-70
2020/12/25 16:21:44;;;;;;;7.77;3.80;;;;;;;;;;10434815;28;20545;-69
2020/12/25 16:26:46;;;;;;;6.87;3.47;;;;;;;;;;10417312;28;20211;-71
2020/12/25 16:31:48;;;;;;;6.87;3.50;;;;;;;;;;10444123;28;20184;-69
2020/12/25 16:36:51;;;;;;;5.40;2.70;;;;;;;;;;10442292;28;20661;-70
2020/12/25 16:41:53;;;;;;;3.67;1.80;;;;;;;;;;10435930;28;20216;-70
2020/12/25 16:47:00;;;;;;;3.93;1.90;;;;;;;;;;10439501;28;20521;-71
2020/12/25 16:52:02;;;;;;;3.63;1.80;;;;;;;;;;10434676;28;20251;-70
2020/12/25 16:57:04;;;;;;;3.53;1.90;;;;;;;;;;10440557;28;20189;-70
2020/12/25 17:02:07;;;;;;;4.90;2.40;;;;;;;;;;10434599;28;20223;-70
2020/12/25 17:07:09;;;;;;;5.13;2.50;;;;;;;;;;10433091;28;20564;-70
2020/12/25 17:12:11;;;;;;;5.77;2.93;;;;;;;;;;10443340;28;20266;-71
2020/12/25 17:17:19;;;;;;;5.87;2.87;;;;;;;;;;10446910;28;20220;-69
2020/12/25 17:22:24;;;;;;;5.70;2.90;;;;;;;;;;10435792;28;20421;-69
2020/12/25 17:27:25;;;;;;;6.00;3.00;;;;;;;;;;10435302;28;20309;-70
2020/12/25 17:32:28;;;;;;;5.93;2.83;;;;;;;;;;10407701;28;20270;-70
2020/12/25 17:37:29;;;;;;;6.90;2.80;;;;;;;;;;10437932;28;20288;-71
2020/12/25 17:42:46;;;;;;;6.80;2.80;;;;;;;;;;10443526;28;20213;-69
2020/12/25 17:47:49;;;;;;;4.73;2.53;;;;;;;;;;10450874;28;20673;-71
2020/12/25 17:52:50;;;;;;;4.97;2.60;;;;;;;;;;10431821;28;20215;-73
2020/12/25 17:57:52;;;;;;;3.00;1.80;;;;;;;;;;10436459;28;20589;-71
2020/12/25 18:02:54;;;;;;;3.83;1.60;;;;;;;;;;10426459;28;20300;-71
2020/12/25 18:07:56;;;;;;;3.53;1.37;;;;;;;;;;10440110;28;20289;-72
2020/12/25 18:12:57;;;;;;;2.80;1.50;;;;;;;;;;10436826;28;20266;-72
2020/12/25 18:18:00;;;;;;;2.60;1.60;;;;;;;;;;10450997;28;20628;-72
2020/12/25 18:23:01;;;;;;;4.23;1.40;;;;;;;;;;10453258;28;20204;-70
2020/12/25 18:28:03;;;;;;;3.07;1.50;;;;;;;;;;10452691;28;20192;-72
2020/12/25 18:33:06;;;;;;;3.93;1.60;;;;;;;;;;10435000;28;21820;-71
2020/12/25 18:38:08;;;;;;;3.17;1.50;;;;;;;;;;10431473;28;20193;-74
2020/12/25 18:43:11;;;;;;;2.53;1.23;;;;;;;;;;10442791;28;20300;-73
2020/12/25 18:48:15;;;;;;;3.07;1.60;;;;;;;;;;10444127;28;20208;-72
2020/12/25 18:53:16;;;;;;;2.40;1.47;;;;;;;;;;10444384;28;20207;-73
2020/12/25 18:58:19;;;;;;;3.80;1.40;;;;;;;;;;10448394;28;20220;-73
2020/12/25 19:03:21;;;;;;;4.47;1.80;;;;;;;;;;10438946;28;20217;-72
2020/12/25 19:08:23;;;;;;;3.40;1.63;;;;;;;;;;10447653;28;20197;-72
2020/12/25 19:13:25;;;;;;;3.67;1.47;;;;;;;;;;10447193;28;20200;-73
2020/12/25 19:18:35;;;;;;;3.53;1.70;;;;;;;;;;10455577;28;20568;-74
2020/12/25 19:23:37;;;;;;;1.90;1.40;;;;;;;;;;10436528;28;20305;-71
2020/12/25 19:28:39;;;;;;;3.53;1.70;;;;;;;;;;10441513;28;20208;-75
2020/12/25 19:33:42;;;;;;;5.60;1.57;;;;;;;;;;10442309;28;20213;-73
2020/12/25 19:38:46;;;;;;;3.90;1.70;;;;;;;;;;10440596;28;20200;-72
2020/12/25 19:43:50;;;;;;;5.30;1.90;;;;;;;;;;10429548;28;20217;-73
2020/12/25 19:48:52;;;;;;;3.80;1.63;;;;;;;;;;10441204;28;20188;-72
2020/12/25 19:53:55;;;;;;;4.03;1.90;;;;;;;;;;10447268;28;20197;-72
2020/12/25 19:58:57;;;;;;;5.43;2.10;;;;;;;;;;10452564;28;20244;-72
2020/12/25 20:04:00;;;;;;;4.10;1.90;;;;;;;;;;10464308;28;20584;-71
2020/12/25 20:09:03;;;;;;;6.03;2.60;;;;;;;;;;10430558;28;20198;-72
2020/12/25 20:14:05;;;;;;;5.47;2.20;;;;;;;;;;10420685;28;20206;-75
2020/12/25 20:19:12;;;;;;;4.43;1.93;;;;;;;;;;10417012;28;20728;-73
2020/12/25 20:24:13;;;;;;;6.43;2.37;;;;;;;;;;10450934;28;20279;-73
2020/12/25 20:29:15;;;;;;;4.27;1.93;;;;;;;;;;10451784;28;20188;-73
2020/12/25 20:34:18;;;;;;;5.13;1.93;;;;;;;;;;10459563;28;20213;-74
2020/12/25 20:39:20;;;;;;;4.20;1.80;;;;;;;;;;10433774;28;20193;-72
2020/12/25 20:44:21;;;;;;;4.40;1.80;;;;;;;;;;10445232;28;20224;-71
2020/12/25 20:49:33;;;;;;;3.80;1.80;;;;;;;;;;10447051;28;20653;-69
2020/12/25 20:54:35;;;;;;;3.17;1.60;;;;;;;;;;10412935;28;20267;-72
2020/12/25 20:59:37;;;;;;;3.37;1.73;;;;;;;;;;10449488;28;20194;-72
2020/12/25 21:04:40;;;;;;;4.73;1.90;;;;;;;;;;10463896;28;20204;-71
2020/12/25 21:09:42;;;;;;;3.07;1.53;;;;;;;;;;10449853;28;20603;-73
2020/12/25 21:14:43;;;;;;;3.70;1.60;;;;;;;;;;10435555;28;20209;-71
2020/12/25 21:19:51;;;;;;;6.87;2.50;;;;;;;;;;10443593;28;20600;-70
2020/12/25 21:24:53;;;;;;;2.30;1.20;;;;;;;;;;10445498;28;20286;-70
2020/12/25 21:29:54;;;;;;;1.73;1.30;;;;;;;;;;10440442;28;20279;-71
2020/12/25 21:34:57;;;;;;;2.33;1.37;;;;;;;;;;10444113;28;20258;-71
2020/12/25 21:39:59;;;;;;;2.80;1.60;;;;;;;;;;10449273;28;20571;-71
2020/12/25 21:45:00;;;;;;;3.80;1.67;;;;;;;;;;10434855;28;20255;-71
2020/12/25 21:50:11;;;;;;;4.77;1.87;;;;;;;;;;10456142;28;20246;-71
2020/12/25 21:55:13;;;;;;;4.67;1.80;;;;;;;;;;10431916;28;20217;-72
2020/12/25 22:00:15;;;;;;;3.03;1.60;;;;;;;;;;10423322;28;20223;-72
2020/12/25 22:05:18;;;;;;;4.97;2.00;;;;;;;;;;10439782;28;20266;-70
2020/12/25 22:10:20;;;;;;;2.97;1.70;;;;;;;;;;10435018;28;20189;-71
2020/12/25 22:15:21;;;;;;;3.80;1.70;;;;;;;;;;10440597;28;20215;-71
2020/12/25 22:20:45;;;;;;;3.87;1.80;;;;;;;;;;10456949;28;20201;-72
2020/12/25 22:25:47;;;;;;;3.60;1.50;;;;;;;;;;10453423;28;20217;-72
2020/12/25 22:30:49;;;;;;;2.13;1.40;;;;;;;;;;10444091;28;20188;-72
2020/12/25 22:35:51;;;;;;;2.17;1.20;;;;;;;;;;10463719;28;20209;-72
2020/12/25 22:40:52;;;;;;;2.90;1.30;;;;;;;;;;10461064;28;20232;-72
2020/12/25 22:45:54;;;;;;;2.37;1.30;;;;;;;;;;10460890;28;20212;-69
2020/12/25 22:50:57;;;;;;;2.93;1.27;;;;;;;;;;10456650;28;20644;-69
2020/12/25 22:55:59;;;;;;;1.93;1.07;;;;;;;;;;10449393;28;20235;-71
2020/12/25 23:01:00;;;;;;;1.33;0.90;;;;;;;;;;10455186;28;20203;-72
2020/12/25 23:06:03;;;;;;;2.10;1.10;;;;;;;;;;10423857;28;20217;-71
2020/12/25 23:11:05;;;;;;;2.60;1.30;;;;;;;;;;10430484;28;20213;-71
2020/12/25 23:16:10;;;;;;;2.23;1.10;;;;;;;;;;10446813;28;20281;-71
2020/12/25 23:21:14;;;;;;;0.80;0.80;;;;;;;;;;10454889;28;20243;-71
2020/12/25 23:26:16;;;;;;;0.87;0.70;;;;;;;;;;10441961;28;20244;-71
2020/12/25 23:31:18;;;;;;;2.43;1.00;;;;;;;;;;10446944;28;20189;-70
2020/12/25 23:36:21;;;;;;;2.80;0.93;;;;;;;;;;10457238;28;20685;-70
2020/12/25 23:41:24;;;;;;;1.40;1.10;;;;;;;;;;10434993;28;20538;-71
2020/12/25 23:46:26;;;;;;;1.70;1.00;;;;;;;;;;10433050;28;20690;-71
2020/12/25 23:51:35;;;;;;;1.37;1.10;;;;;;;;;;10454725;28;20600;-70
2020/12/25 23:56:37;;;;;;;1.77;1.00;;;;;;;;;;10428046;28;20221;-71
